Observation data for Haskell on 12/14/2019      Previous  Date       Current Mesonet Observations  Soil Data  Daily Summary Page  Observations in Plain Language
KHA1 140600Z 11004KT 10/03 A2986 RMK A01 T00950031  RH  065%=      5-min Rain = 0
KHA1 140605Z 09004KT 09/03 A2987 RMK A01 T00910029  RH  066%=      5-min Rain = 0
KHA1 140610Z 07004KT 08/03 A2988 RMK A01 T00800026  RH  070%=      5-min Rain = 0
KHA1 140615Z 04003KT 07/02 A2988 RMK A01 T00660019  RH  073%=      5-min Rain = 0
KHA1 140620Z 01006KT 05/02 A2989 RMK A01 T00480015  RH  080%=      5-min Rain = 0
KHA1 140625Z 01007KT 05/02 A2989 RMK A01 T00460019  RH  084%=      5-min Rain = 0
KHA1 140630Z 01008KT 05/02 A2989 RMK A01 T00460020  RH  085%=      5-min Rain = 0
KHA1 140635Z 00008KT 05/02 A2989 RMK A01 T00450020  RH  085%=      5-min Rain = 0
KHA1 140640Z 36008KT 05/02 A2989 RMK A01 T00460020  RH  085%=      5-min Rain = 0
KHA1 140645Z 35006KT 05/02 A299 RMK A01 T00460020  RH  084%=      5-min Rain = 0
KHA1 140650Z 01007KT 04/02 A299 RMK A01 T00440019  RH  085%=      5-min Rain = 0
KHA1 140655Z 01008KT 04/02 A2989 RMK A01 T00430019  RH  085%=      5-min Rain = 0
KHA1 140700Z 01008KT 04/02 A2989 RMK A01 T00430019  RH  086%=      5-min Rain = 0
KHA1 140705Z 02007KT 04/02 A2989 RMK A01 T00420020  RH  087%=      5-min Rain = 0
KHA1 140710Z 02007KT 04/02 A2988 RMK A01 T00440021  RH  086%=      5-min Rain = 0
KHA1 140715Z 01007KT 04/02 A2988 RMK A01 T00430019  RH  085%=      5-min Rain = 0
KHA1 140720Z 01006KT 04/02 A2988 RMK A01 T00420018  RH  086%=      5-min Rain = 0
KHA1 140725Z 02005KT 04/02 A2988 RMK A01 T00400017  RH  086%=      5-min Rain = 0
KHA1 140730Z 01004KT 04/02 A2988 RMK A01 T00390016  RH  086%=      5-min Rain = 0
KHA1 140735Z 02004KT 04/02 A2988 RMK A01 T00390016  RH  086%=      5-min Rain = 0
KHA1 140740Z 03004KT 04/02 A2987 RMK A01 T00390016  RH  086%=      5-min Rain = 0
KHA1 140745Z 03004KT 04/02 A2987 RMK A01 T00390016  RH  086%=      5-min Rain = 0
KHA1 140750Z 03005KT 04/02 A2987 RMK A01 T00390016  RH  086%=      5-min Rain = 0
KHA1 140755Z 02004KT 04/01 A2987 RMK A01 T00370014  RH  086%=      5-min Rain = 0
KHA1 140800Z 02004KT 03/01 A2988 RMK A01 T00340012  RH  087%=      5-min Rain = 0
KHA1 140805Z 01004KT 03/01 A2988 RMK A01 T00320010  RH  087%=      5-min Rain = 0
KHA1 140810Z 01005KT 03/01 A2988 RMK A01 T00300009  RH  087%=      5-min Rain = 0
KHA1 140815Z 00005KT 03/01 A2988 RMK A01 T00260007  RH  088%=      5-min Rain = 0
KHA1 140820Z 01006KT 02/01 A2988 RMK A01 T00240006  RH  089%=      5-min Rain = 0
KHA1 140825Z 01006KT 03/01 A2988 RMK A01 T00260010  RH  090%=      5-min Rain = 0
KHA1 140830Z 01004KT 03/01 A2988 RMK A01 T00290013  RH  090%=      5-min Rain = 0
KHA1 140835Z 02005KT 03/01 A2988 RMK A01 T00310014  RH  089%=      5-min Rain = 0
KHA1 140840Z 01005KT 03/01 A2988 RMK A01 T00310012  RH  089%=      5-min Rain = 0
KHA1 140845Z 01007KT 03/01 A2988 RMK A01 T00300011  RH  088%=      5-min Rain = 0
KHA1 140850Z 01006KT 03/02 A2988 RMK A01 T00340016  RH  089%=      5-min Rain = 0
KHA1 140855Z 36007KT 04/02 A2988 RMK A01 T00350015  RH  089%=      5-min Rain = 0
KHA1 140900Z 36008KT 04/02 A2989 RMK A01 T00350017  RH  089%=      5-min Rain = 0
KHA1 140905Z 00006KT 04/02 A2988 RMK A01 T00370018  RH  089%=      5-min Rain = 0
KHA1 140910Z 36005KT 04/02 A2988 RMK A01 T00350015  RH  089%=      5-min Rain = 0
KHA1 140915Z 36005KT 03/01 A2988 RMK A01 T00320014  RH  089%=      5-min Rain = 0
KHA1 140920Z 35004KT 03/01 A2988 RMK A01 T00310014  RH  090%=      5-min Rain = 0
KHA1 140925Z 35004KT 03/01 A2989 RMK A01 T00310014  RH  090%=      5-min Rain = 0
KHA1 140930Z 35004KT 03/01 A2989 RMK A01 T00310013  RH  090%=      5-min Rain = 0
KHA1 140935Z 35004KT 03/01 A2989 RMK A01 T00300013  RH  090%=      5-min Rain = 0
KHA1 140940Z 35005KT 03/01 A2988 RMK A01 T00310014  RH  090%=      5-min Rain = 0
KHA1 140945Z 34005KT 03/01 A2988 RMK A01 T00270010  RH  089%=      5-min Rain = 0
KHA1 140950Z 35008G13KT 03/01 A2988 RMK A01 T00250010  RH  091%=      5-min Rain = 0
KHA1 140955Z 35007KT 03/02 A2988 RMK A01 T00300016  RH  092%=      5-min Rain = 0
KHA1 141000Z 36007KT 03/02 A2988 RMK A01 T00320017  RH  091%=      5-min Rain = 0
KHA1 141005Z 36007KT 03/02 A2988 RMK A01 T00320016  RH  091%=      5-min Rain = 0
KHA1 141010Z 00007KT 03/02 A2988 RMK A01 T00310015  RH  091%=      5-min Rain = 0
KHA1 141015Z 00006KT 03/02 A2988 RMK A01 T00310016  RH  091%=      5-min Rain = 0
KHA1 141020Z 02005G11KT 03/02 A2988 RMK A01 T00330019  RH  092%=      5-min Rain = 0
KHA1 141025Z 02007G12KT 03/02 A2988 RMK A01 T00340018  RH  091%=      5-min Rain = 0
KHA1 141030Z 01007KT 04/02 A2988 RMK A01 T00350019  RH  090%=      5-min Rain = 0
KHA1 141035Z 00006KT 04/02 A2988 RMK A01 T00350018  RH  090%=      5-min Rain = 0
KHA1 141040Z 01006KT 03/02 A2988 RMK A01 T00330017  RH  090%=      5-min Rain = 0
KHA1 141045Z 36004KT 03/02 A2988 RMK A01 T00310016  RH  091%=      5-min Rain = 0
KHA1 141050Z 36003KT 03/02 A2987 RMK A01 T00300015  RH  091%=      5-min Rain = 0
KHA1 141055Z 36003KT 03/02 A2987 RMK A01 T00300015  RH  091%=      5-min Rain = 0
KHA1 141100Z 36004KT 03/01 A2987 RMK A01 T00290014  RH  092%=      5-min Rain = 0
KHA1 141105Z 35003KT 03/01 A2986 RMK A01 T00280014  RH  092%=      5-min Rain = 0
KHA1 141110Z 36003KT 03/01 A2986 RMK A01 T00260011  RH  092%=      5-min Rain = 0
KHA1 141115Z 01003KT 03/01 A2986 RMK A01 T00250012  RH  092%=      5-min Rain = 0
KHA1 141120Z 00003KT 03/01 A2986 RMK A01 T00250012  RH  092%=      5-min Rain = 0
KHA1 141125Z 01004KT 03/01 A2985 RMK A01 T00250011  RH  092%=      5-min Rain = 0
KHA1 141130Z 01006KT 02/01 A2985 RMK A01 T00220008  RH  092%=      5-min Rain = 0
KHA1 141135Z 01006KT 02/01 A2985 RMK A01 T00210008  RH  093%=      5-min Rain = 0
KHA1 141140Z 01003KT 02/01 A2985 RMK A01 T00210009  RH  093%=      5-min Rain = 0
KHA1 141145Z 01004KT 02/01 A2985 RMK A01 T00230011  RH  093%=      5-min Rain = 0
KHA1 141150Z 35002KT 02/01 A2986 RMK A01 T00230011  RH  093%=      5-min Rain = 0
KHA1 141155Z 35001KT 02/01 A2986 RMK A01 T00230010  RH  093%=      5-min Rain = 0
KHA1 141200Z 34000KT 02/01 A2986 RMK A01 T00230011  RH  093%=      5-min Rain = 0
KHA1 141205Z 00000KT 02/01 A2986 RMK A01 T00220010  RH  093%=      5-min Rain = 0
KHA1 141210Z 00000KT 02/01 A2986 RMK A01 T00210010  RH  093%=      5-min Rain = 0
KHA1 141215Z 00000KT 02/01 A2986 RMK A01 T00210009  RH  093%=      5-min Rain = 0
KHA1 141220Z 00000KT 02/01 A2986 RMK A01 T00190008  RH  093%=      5-min Rain = 0
KHA1 141225Z 00000KT 02/01 A2986 RMK A01 T00190008  RH  094%=      5-min Rain = 0
KHA1 141230Z 01003G9KT 02/01 A2986 RMK A01 T00180008  RH  094%=      5-min Rain = 0
KHA1 141235Z 02006KT 02/01 A2986 RMK A01 T00180008  RH  094%=      5-min Rain = 0
KHA1 141240Z 03004KT 02/01 A2986 RMK A01 T00200010  RH  095%=      5-min Rain = 0
KHA1 141245Z 01005KT 03/02 A2987 RMK A01 T00260016  RH  095%=      5-min Rain = 0
KHA1 141250Z 01005KT 02/01 A2987 RMK A01 T00240012  RH  093%=      5-min Rain = 0
KHA1 141255Z 01004KT 02/01 A2987 RMK A01 T00200008  RH  093%=      5-min Rain = 0
KHA1 141300Z 01004KT 02/01 A2986 RMK A01 T00190007  RH  093%=      5-min Rain = 0
KHA1 141305Z 00005KT 02/01 A2986 RMK A01 T00180006  RH  093%=      5-min Rain = 0
KHA1 141310Z 00004KT 02/00 A2986 RMK A01 T00160004  RH  093%=      5-min Rain = 0
KHA1 141315Z 01004KT 02/01 A2986 RMK A01 T00160005  RH  094%=      5-min Rain = 0
KHA1 141320Z 36003KT 02/01 A2986 RMK A01 T00160005  RH  094%=      5-min Rain = 0
KHA1 141325Z 36003KT 02/01 A2986 RMK A01 T00160006  RH  094%=      5-min Rain = 0
KHA1 141330Z 00004KT 02/01 A2987 RMK A01 T00170006  RH  094%=      5-min Rain = 0
KHA1 141335Z 35004KT 02/01 A2987 RMK A01 T00170007  RH  094%=      5-min Rain = 0
KHA1 141340Z 35004KT 02/01 A2987 RMK A01 T00160006  RH  094%=      5-min Rain = 0
KHA1 141345Z 35005KT 02/00 A2988 RMK A01 T00150004  RH  094%=      5-min Rain = 0
KHA1 141350Z 35004KT 02/01 A2988 RMK A01 T00170007  RH  094%=      5-min Rain = 0
KHA1 141355Z 36002KT 02/01 A2987 RMK A01 T00200010  RH  094%=      5-min Rain = 0
KHA1 141400Z 00000KT 03/02 A2987 RMK A01 T00250015  RH  094%=      5-min Rain = 0
KHA1 141405Z 00000KT 03/02 A2987 RMK A01 T00290017  RH  093%=      5-min Rain = 0
KHA1 141410Z 00000KT 03/02 A2987 RMK A01 T00290015  RH  092%=      5-min Rain = 0
KHA1 141415Z 00000KT 03/02 A2987 RMK A01 T00340019  RH  091%=      5-min Rain = 0
KHA1 141420Z 00000KT 04/02 A2987 RMK A01 T00380020  RH  089%=      5-min Rain = 0
KHA1 141425Z 00000KT 04/02 A2987 RMK A01 T00360017  RH  089%=      5-min Rain = 0
KHA1 141430Z 00000KT 04/02 A2987 RMK A01 T00400022  RH  090%=      5-min Rain = 0
KHA1 141435Z 00000KT 04/03 A2987 RMK A01 T00440026  RH  089%=      5-min Rain = 0
KHA1 141440Z 00000KT 05/03 A2988 RMK A01 T00490029  RH  088%=      5-min Rain = 0
KHA1 141445Z 00000KT 05/03 A2988 RMK A01 T00520030  RH  087%=      5-min Rain = 0
KHA1 141450Z 00000KT 06/03 A2988 RMK A01 T00550031  RH  086%=      5-min Rain = 0
KHA1 141455Z 36002KT 06/03 A2988 RMK A01 T00560031  RH  085%=      5-min Rain = 0
KHA1 141500Z 00003KT 06/03 A2988 RMK A01 T00590033  RH  085%=      5-min Rain = 0
KHA1 141505Z 01003KT 06/03 A2988 RMK A01 T00600033  RH  084%=      5-min Rain = 0
KHA1 141510Z 01003KT 06/04 A2989 RMK A01 T00630036  RH  084%=      5-min Rain = 0
KHA1 141515Z 36004KT 07/04 A2989 RMK A01 T00670038  RH  083%=      5-min Rain = 0
KHA1 141520Z 01004KT 07/04 A2989 RMK A01 T00690038  RH  082%=      5-min Rain = 0
KHA1 141525Z 00004KT 07/04 A2989 RMK A01 T00700039  RH  082%=      5-min Rain = 0
KHA1 141530Z 36004KT 07/04 A2989 RMK A01 T00720039  RH  081%=      5-min Rain = 0
KHA1 141535Z 01004KT 08/04 A2989 RMK A01 T00750040  RH  080%=      5-min Rain = 0
KHA1 141540Z 01004KT 08/04 A2989 RMK A01 T00770040  RH  079%=      5-min Rain = 0
KHA1 141545Z 02004KT 08/04 A2989 RMK A01 T00800041  RH  078%=      5-min Rain = 0
KHA1 141550Z 02004KT 08/04 A2989 RMK A01 T00830041  RH  076%=      5-min Rain = 0
KHA1 141555Z 02004KT 09/04 A2989 RMK A01 T00860041  RH  075%=      5-min Rain = 0
KHA1 141600Z 02004KT 09/04 A2989 RMK A01 T00880040  RH  073%=      5-min Rain = 0
KHA1 141605Z 03003KT 09/04 A2989 RMK A01 T00890038  RH  072%=      5-min Rain = 0
KHA1 141610Z 05003KT 09/04 A2989 RMK A01 T00910036  RH  070%=      5-min Rain = 0
KHA1 141615Z 05004KT 09/04 A2989 RMK A01 T00940036  RH  069%=      5-min Rain = 0
KHA1 141620Z 05005KT 10/04 A2989 RMK A01 T00970035  RH  066%=      5-min Rain = 0
KHA1 141625Z 06005KT 10/03 A2989 RMK A01 T01000034  RH  065%=      5-min Rain = 0
KHA1 141630Z 04005KT 10/03 A2989 RMK A01 T01010034  RH  064%=      5-min Rain = 0
KHA1 141635Z 07004KT 11/03 A2989 RMK A01 T01050034  RH  063%=      5-min Rain = 0
KHA1 141640Z 07003KT 11/03 A2989 RMK A01 T01110033  RH  060%=      5-min Rain = 0
KHA1 141645Z 06005KT 11/03 A2988 RMK A01 T01110030  RH  058%=      5-min Rain = 0
KHA1 141650Z 06003KT 12/03 A2988 RMK A01 T01160031  RH  057%=      5-min Rain = 0
KHA1 141655Z 06004KT 11/03 A2988 RMK A01 T01140031  RH  058%=      5-min Rain = 0
KHA1 141700Z 05004KT 11/03 A2988 RMK A01 T01140032  RH  058%=      5-min Rain = 0
KHA1 141705Z 04005KT 12/03 A2988 RMK A01 T01150032  RH  058%=      5-min Rain = 0
KHA1 141710Z 07005KT 12/03 A2987 RMK A01 T01200034  RH  056%=      5-min Rain = 0
KHA1 141715Z 07005KT 12/03 A2987 RMK A01 T01210034  RH  056%=      5-min Rain = 0
KHA1 141720Z 08005KT 12/04 A2987 RMK A01 T01230035  RH  056%=      5-min Rain = 0
KHA1 141725Z 08005KT 12/04 A2987 RMK A01 T01230036  RH  056%=      5-min Rain = 0
KHA1 141730Z 08006KT 13/04 A2986 RMK A01 T01270037  RH  055%=      5-min Rain = 0
KHA1 141735Z 09005KT 13/04 A2986 RMK A01 T01310039  RH  055%=      5-min Rain = 0
KHA1 141740Z 06005KT 13/04 A2986 RMK A01 T01300038  RH  055%=      5-min Rain = 0
KHA1 141745Z 10005KT 13/04 A2985 RMK A01 T01310040  RH  055%=      5-min Rain = 0
KHA1 141750Z 11005KT 13/04 A2985 RMK A01 T01320040  RH  055%=      5-min Rain = 0
KHA1 141755Z 08007KT 13/04 A2984 RMK A01 T01340042  RH  055%=      5-min Rain = 0
KHA1 141800Z 09005KT 13/04 A2983 RMK A01 T01340043  RH  055%=      5-min Rain = 0
KHA1 141805Z 11004G9KT 14/05 A2983 RMK A01 T01380045  RH  055%=      5-min Rain = 0
KHA1 141810Z 12006KT 14/05 A2982 RMK A01 T01390046  RH  054%=      5-min Rain = 0
KHA1 141815Z 10006KT 14/05 A2982 RMK A01 T01370046  RH  055%=      5-min Rain = 0
KHA1 141820Z 08006KT 14/05 A2982 RMK A01 T01390046  RH  054%=      5-min Rain = 0
KHA1 141825Z 08005KT 14/05 A2982 RMK A01 T01400046  RH  054%=      5-min Rain = 0
KHA1 141830Z 08005KT 14/05 A2981 RMK A01 T01430046  RH  053%=      5-min Rain = 0
KHA1 141835Z 08003G8KT 15/05 A298 RMK A01 T01450046  RH  052%=      5-min Rain = 0
KHA1 141840Z 11006G12KT 15/05 A298 RMK A01 T01490046  RH  051%=      5-min Rain = 0
KHA1 141845Z 11006KT 15/04 A298 RMK A01 T01530044  RH  049%=      5-min Rain = 0
KHA1 141850Z 10008KT 16/04 A298 RMK A01 T01570043  RH  047%=      5-min Rain = 0
KHA1 141855Z 11008KT 16/04 A2979 RMK A01 T01580042  RH  047%=      5-min Rain = 0
KHA1 141900Z 11005G10KT 16/04 A2979 RMK A01 T01590042  RH  046%=      5-min Rain = 0
KHA1 141905Z 11008KT 16/04 A2979 RMK A01 T01600041  RH  046%=      5-min Rain = 0
KHA1 141910Z 11006KT 16/04 A2978 RMK A01 T01580042  RH  047%=      5-min Rain = 0
KHA1 141915Z 11007KT 16/04 A2978 RMK A01 T01630042  RH  046%=      5-min Rain = 0
KHA1 141920Z 11007KT 17/04 A2978 RMK A01 T01660042  RH  045%=      5-min Rain = 0
KHA1 141925Z 11006KT 17/04 A2978 RMK A01 T01660041  RH  044%=      5-min Rain = 0
KHA1 141930Z 09008KT 17/04 A2978 RMK A01 T01660042  RH  044%=      5-min Rain = 0
KHA1 141935Z 10007KT 17/04 A2977 RMK A01 T01690042  RH  044%=      5-min Rain = 0
KHA1 141940Z 12008KT 17/04 A2977 RMK A01 T01670039  RH  043%=      5-min Rain = 0
KHA1 141945Z 11006G11KT 17/04 A2977 RMK A01 T01690041  RH  043%=      5-min Rain = 0
KHA1 141950Z 13007KT 17/04 A2976 RMK A01 T01680039  RH  043%=      5-min Rain = 0
KHA1 141955Z 12006KT 17/04 A2976 RMK A01 T01690041  RH  043%=      5-min Rain = 0
KHA1 142000Z 11007KT 17/04 A2976 RMK A01 T01700040  RH  043%=      5-min Rain = 0
KHA1 142005Z 12007KT 17/04 A2976 RMK A01 T01680039  RH  043%=      5-min Rain = 0
KHA1 142010Z 13007KT 17/04 A2975 RMK A01 T01710040  RH  043%=      5-min Rain = 0
KHA1 142015Z 10006KT 17/04 A2975 RMK A01 T01720040  RH  042%=      5-min Rain = 0
KHA1 142020Z 10007KT 17/04 A2975 RMK A01 T01720040  RH  042%=      5-min Rain = 0
KHA1 142025Z 10007KT 17/04 A2975 RMK A01 T01740042  RH  042%=      5-min Rain = 0
KHA1 142030Z 10007KT 17/04 A2974 RMK A01 T01740042  RH  042%=      5-min Rain = 0
KHA1 142035Z 12007KT 18/04 A2974 RMK A01 T01760044  RH  042%=      5-min Rain = 0
KHA1 142040Z 11007KT 18/04 A2974 RMK A01 T01750044  RH  043%=      5-min Rain = 0
KHA1 142045Z 10007KT 18/04 A2974 RMK A01 T01760043  RH  042%=      5-min Rain = 0
KHA1 142050Z 11006KT 18/04 A2974 RMK A01 T01760043  RH  042%=      5-min Rain = 0
KHA1 142055Z 12007KT 18/04 A2974 RMK A01 T01770043  RH  042%=      5-min Rain = 0
KHA1 142100Z 10008KT 18/04 A2974 RMK A01 T01760043  RH  042%=      5-min Rain = 0
KHA1 142105Z 11006KT 18/05 A2974 RMK A01 T01800045  RH  042%=      5-min Rain = 0
KHA1 142110Z 13006KT 18/04 A2974 RMK A01 T01790044  RH  041%=      5-min Rain = 0
KHA1 142115Z 09005KT 18/04 A2973 RMK A01 T01820044  RH  041%=      5-min Rain = 0
KHA1 142120Z 13006KT 18/05 A2973 RMK A01 T01800045  RH  042%=      5-min Rain = 0
KHA1 142125Z 10005KT 18/05 A2973 RMK A01 T01810046  RH  042%=      5-min Rain = 0
KHA1 142130Z 11006KT 18/05 A2973 RMK A01 T01820046  RH  041%=      5-min Rain = 0
KHA1 142135Z 09006KT 18/05 A2973 RMK A01 T01820047  RH  042%=      5-min Rain = 0
KHA1 142140Z 11007KT 18/05 A2973 RMK A01 T01820048  RH  042%=      5-min Rain = 0
KHA1 142145Z 11005KT 18/05 A2973 RMK A01 T01830049  RH  042%=      5-min Rain = 0
KHA1 142150Z 10006KT 18/05 A2973 RMK A01 T01840049  RH  042%=      5-min Rain = 0
KHA1 142155Z 11006KT 18/05 A2973 RMK A01 T01830050  RH  042%=      5-min Rain = 0
KHA1 142200Z 11006KT 18/05 A2973 RMK A01 T01830050  RH  043%=      5-min Rain = 0
KHA1 142205Z 11006KT 18/05 A2973 RMK A01 T01820051  RH  043%=      5-min Rain = 0
KHA1 142210Z 11006KT 18/05 A2973 RMK A01 T01820051  RH  043%=      5-min Rain = 0
KHA1 142215Z 11005KT 18/05 A2973 RMK A01 T01820051  RH  043%=      5-min Rain = 0
KHA1 142220Z 11006KT 18/05 A2973 RMK A01 T01830051  RH  043%=      5-min Rain = 0
KHA1 142225Z 10006KT 18/05 A2973 RMK A01 T01820052  RH  043%=      5-min Rain = 0
KHA1 142230Z 10006KT 18/05 A2973 RMK A01 T01800052  RH  044%=      5-min Rain = 0
KHA1 142235Z 09006KT 18/05 A2973 RMK A01 T01770051  RH  044%=      5-min Rain = 0
KHA1 142240Z 09005KT 18/05 A2973 RMK A01 T01750051  RH  045%=      5-min Rain = 0
KHA1 142245Z 10005KT 17/05 A2973 RMK A01 T01740051  RH  045%=      5-min Rain = 0
KHA1 142250Z 10005KT 17/05 A2973 RMK A01 T01730052  RH  046%=      5-min Rain = 0
KHA1 142255Z 09004KT 17/05 A2973 RMK A01 T01730052  RH  046%=      5-min Rain = 0
KHA1 142300Z 09005KT 17/05 A2973 RMK A01 T01730053  RH  046%=      5-min Rain = 0
KHA1 142305Z 09004KT 17/05 A2973 RMK A01 T01710052  RH  047%=      5-min Rain = 0
KHA1 142310Z 08004KT 17/05 A2973 RMK A01 T01690053  RH  047%=      5-min Rain = 0
KHA1 142315Z 08006KT 17/05 A2973 RMK A01 T01650053  RH  048%=      5-min Rain = 0
KHA1 142320Z 07006KT 16/05 A2973 RMK A01 T01590052  RH  050%=      5-min Rain = 0
KHA1 142325Z 06005KT 16/05 A2973 RMK A01 T01550051  RH  051%=      5-min Rain = 0
KHA1 142330Z 06005KT 15/05 A2974 RMK A01 T01500051  RH  053%=      5-min Rain = 0
KHA1 142335Z 06005KT 15/05 A2974 RMK A01 T01460050  RH  054%=      5-min Rain = 0
KHA1 142340Z 07006KT 14/05 A2974 RMK A01 T01420049  RH  055%=      5-min Rain = 0
KHA1 142345Z 07005KT 14/05 A2974 RMK A01 T01380048  RH  056%=      5-min Rain = 0
KHA1 142350Z 07006KT 14/05 A2974 RMK A01 T01350048  RH  057%=      5-min Rain = 0
KHA1 142355Z 07006KT 13/05 A2974 RMK A01 T01320048  RH  058%=      5-min Rain = 0
KHA1 150000Z 07006KT 13/05 A2974 RMK A01 T01300047  RH  059%=      5-min Rain = 0
KHA1 150005Z 07006KT 13/05 A2974 RMK A01 T01280048  RH  059%=      5-min Rain = 0
KHA1 150010Z 07006KT 13/05 A2974 RMK A01 T01270048  RH  060%=      5-min Rain = 0
KHA1 150015Z 07007KT 12/05 A2974 RMK A01 T01240047  RH  061%=      5-min Rain = 0
KHA1 150020Z 08007KT 12/05 A2974 RMK A01 T01200047  RH  062%=      5-min Rain = 0
KHA1 150025Z 08007KT 12/05 A2975 RMK A01 T01200048  RH  063%=      5-min Rain = 0
KHA1 150030Z 08007KT 12/05 A2975 RMK A01 T01200048  RH  063%=      5-min Rain = 0
KHA1 150035Z 08007KT 12/05 A2975 RMK A01 T01200048  RH  063%=      5-min Rain = 0
KHA1 150040Z 07007KT 12/05 A2975 RMK A01 T01190048  RH  063%=      5-min Rain = 0
KHA1 150045Z 07006KT 12/05 A2975 RMK A01 T01180047  RH  063%=      5-min Rain = 0
KHA1 150050Z 07006KT 12/05 A2975 RMK A01 T01170047  RH  063%=      5-min Rain = 0
KHA1 150055Z 07006KT 12/05 A2975 RMK A01 T01150047  RH  064%=      5-min Rain = 0
KHA1 150100Z 06007KT 12/05 A2975 RMK A01 T01170047  RH  063%=      5-min Rain = 0
KHA1 150105Z 06007KT 12/05 A2976 RMK A01 T01180047  RH  063%=      5-min Rain = 0
KHA1 150110Z 07006KT 12/05 A2976 RMK A01 T01160047  RH  064%=      5-min Rain = 0
KHA1 150115Z 06007KT 12/05 A2976 RMK A01 T01160047  RH  064%=      5-min Rain = 0
KHA1 150120Z 07008KT 11/05 A2976 RMK A01 T01140047  RH  064%=      5-min Rain = 0
KHA1 150125Z 07008KT 11/05 A2976 RMK A01 T01130047  RH  065%=      5-min Rain = 0
KHA1 150130Z 07008KT 11/05 A2976 RMK A01 T01120047  RH  066%=      5-min Rain = 0
KHA1 150135Z 08008KT 11/05 A2976 RMK A01 T01110047  RH  066%=      5-min Rain = 0
KHA1 150140Z 07008KT 11/05 A2976 RMK A01 T01100047  RH  066%=      5-min Rain = 0
KHA1 150145Z 07008KT 11/05 A2975 RMK A01 T01090047  RH  067%=      5-min Rain = 0
KHA1 150150Z 07009KT 11/05 A2975 RMK A01 T01090047  RH  067%=      5-min Rain = 0
KHA1 150155Z 07009KT 11/05 A2975 RMK A01 T01100047  RH  066%=      5-min Rain = 0
KHA1 150200Z 07009KT 11/05 A2975 RMK A01 T01100047  RH  066%=      5-min Rain = 0
KHA1 150205Z 07009KT 11/05 A2975 RMK A01 T01090047  RH  067%=      5-min Rain = 0
KHA1 150210Z 07009KT 11/05 A2975 RMK A01 T01070046  RH  068%=      5-min Rain = 0
KHA1 150215Z 08008KT 11/05 A2975 RMK A01 T01050046  RH  068%=      5-min Rain = 0
KHA1 150220Z 08008KT 10/05 A2975 RMK A01 T01040046  RH  069%=      5-min Rain = 0
KHA1 150225Z 08008KT 10/05 A2975 RMK A01 T01030045  RH  069%=      5-min Rain = 0
KHA1 150230Z 08008KT 10/05 A2975 RMK A01 T01010045  RH  069%=      5-min Rain = 0
KHA1 150235Z 08008KT 10/04 A2975 RMK A01 T01010044  RH  069%=      5-min Rain = 0
KHA1 150240Z 07008KT 10/04 A2976 RMK A01 T01000044  RH  069%=      5-min Rain = 0
KHA1 150245Z 07008KT 10/04 A2976 RMK A01 T00980043  RH  070%=      5-min Rain = 0
KHA1 150250Z 07008KT 10/04 A2976 RMK A01 T00970043  RH  070%=      5-min Rain = 0
KHA1 150255Z 07008KT 10/04 A2976 RMK A01 T00960043  RH  071%=      5-min Rain = 0
KHA1 150300Z 07008KT 09/04 A2976 RMK A01 T00940042  RH  072%=      5-min Rain = 0
KHA1 150305Z 07008KT 09/04 A2976 RMK A01 T00930042  RH  072%=      5-min Rain = 0
KHA1 150310Z 07008KT 09/04 A2976 RMK A01 T00910042  RH  072%=      5-min Rain = 0
KHA1 150315Z 07008KT 09/04 A2976 RMK A01 T00900041  RH  073%=      5-min Rain = 0
KHA1 150320Z 07008KT 09/04 A2976 RMK A01 T00880041  RH  074%=      5-min Rain = 0
KHA1 150325Z 07008KT 09/04 A2975 RMK A01 T00880041  RH  074%=      5-min Rain = 0
KHA1 150330Z 07008KT 09/04 A2975 RMK A01 T00870040  RH  074%=      5-min Rain = 0
KHA1 150335Z 07008KT 09/04 A2975 RMK A01 T00860040  RH  074%=      5-min Rain = 0
KHA1 150340Z 08008KT 09/04 A2975 RMK A01 T00870040  RH  074%=      5-min Rain = 0
KHA1 150345Z 07008KT 09/04 A2975 RMK A01 T00860040  RH  074%=      5-min Rain = 0
KHA1 150350Z 08008KT 09/04 A2975 RMK A01 T00850040  RH  075%=      5-min Rain = 0
KHA1 150355Z 08008KT 08/04 A2975 RMK A01 T00840040  RH  075%=      5-min Rain = 0
KHA1 150400Z 08008KT 09/04 A2975 RMK A01 T00850040  RH  075%=      5-min Rain = 0
KHA1 150405Z 08008KT 09/04 A2974 RMK A01 T00850039  RH  074%=      5-min Rain = 0
KHA1 150410Z 08007KT 08/04 A2974 RMK A01 T00840039  RH  075%=      5-min Rain = 0
KHA1 150415Z 09007KT 08/04 A2974 RMK A01 T00830039  RH  075%=      5-min Rain = 0
KHA1 150420Z 09007KT 08/04 A2974 RMK A01 T00820039  RH  076%=      5-min Rain = 0
KHA1 150425Z 09007KT 08/04 A2974 RMK A01 T00820038  RH  076%=      5-min Rain = 0
KHA1 150430Z 09007KT 08/04 A2974 RMK A01 T00810038  RH  076%=      5-min Rain = 0
KHA1 150435Z 09007KT 08/04 A2974 RMK A01 T00820038  RH  076%=      5-min Rain = 0
KHA1 150440Z 09007KT 08/04 A2974 RMK A01 T00830039  RH  075%=      5-min Rain = 0
KHA1 150445Z 10007KT 08/04 A2974 RMK A01 T00840040  RH  075%=      5-min Rain = 0
KHA1 150450Z 10008G13KT 09/04 A2974 RMK A01 T00860040  RH  075%=      5-min Rain = 0
KHA1 150455Z 10008KT 09/04 A2973 RMK A01 T00880041  RH  074%=      5-min Rain = 0
KHA1 150500Z 10008KT 09/04 A2974 RMK A01 T00890042  RH  074%=      5-min Rain = 0
KHA1 150505Z 10008KT 09/04 A2974 RMK A01 T00890041  RH  074%=      5-min Rain = 0
KHA1 150510Z 10007KT 09/04 A2973 RMK A01 T00880041  RH  074%=      5-min Rain = 0
KHA1 150515Z 10007KT 09/04 A2973 RMK A01 T00870041  RH  074%=      5-min Rain = 0
KHA1 150520Z 10007KT 09/04 A2973 RMK A01 T00870041  RH  074%=      5-min Rain = 0
KHA1 150525Z 10007KT 09/04 A2973 RMK A01 T00860041  RH  075%=      5-min Rain = 0
KHA1 150530Z 10007KT 09/04 A2973 RMK A01 T00850041  RH  075%=      5-min Rain = 0
KHA1 150535Z 10006KT 09/04 A2973 RMK A01 T00850041  RH  075%=      5-min Rain = 0
KHA1 150540Z 11008KT 09/04 A2972 RMK A01 T00850041  RH  075%=      5-min Rain = 0
KHA1 150545Z 11008KT 09/04 A2972 RMK A01 T00850041  RH  075%=      5-min Rain = 0
KHA1 150550Z 11008KT 08/04 A2972 RMK A01 T00830041  RH  076%=      5-min Rain = 0
KHA1 150555Z 11008KT 08/04 A2972 RMK A01 T00820041  RH  076%=      5-min Rain = 0

Page generated in 0.0089 seconds.